Time;durP1;ratioP1;P1;durP2;ratioP2;P2;SDS_P1;SDS_P2;PMS_P1;PMS_P2;Temp;Humidity;BMP_temperature;BMP_pressure;BME280_temperature;BME280_humidity;BME280_pressure;Samples;Min_cycle;Max_cycle;Signal;HPM_P1;HPM_P2
2022/10/24 00:00:39;;;;;;;20.60;13.95;;;14.90;99.90;;;;;;5023769;28;20089;-46
2022/10/24 00:03:04;;;;;;;18.02;12.95;;;15.00;99.90;;;;;;5020327;28;20513;-46
2022/10/24 00:05:30;;;;;;;20.40;12.02;;;15.00;99.90;;;;;;5024161;28;20036;-47
2022/10/24 00:07:56;;;;;;;20.65;13.15;;;14.90;99.90;;;;;;5029286;28;20034;-46
2022/10/24 00:10:21;;;;;;;22.50;15.68;;;14.70;99.90;;;;;;5050965;28;20047;-46
2022/10/24 00:12:48;;;;;;;21.33;14.80;;;;;;;;;;5064600;28;20035;-47
2022/10/24 00:15:15;;;;;;;19.92;14.32;;;14.40;99.90;;;;;;5065985;28;20020;-46
2022/10/24 00:17:41;;;;;;;16.33;11.88;;;14.50;99.90;;;;;;5063353;28;20358;-46
2022/10/24 00:20:07;;;;;;;15.93;11.05;;;14.60;99.90;;;;;;5069240;28;20020;-46
2022/10/24 00:22:33;;;;;;;15.50;11.70;;;14.70;99.90;;;;;;5010248;28;20464;-46
2022/10/24 00:24:59;;;;;;;17.48;12.35;;;14.70;99.90;;;;;;5067796;28;20060;-46
2022/10/24 00:27:25;;;;;;;13.18;10.82;;;15.00;99.90;;;;;;5037075;28;20496;-46
2022/10/24 00:29:50;;;;;;;15.15;12.43;;;15.10;99.90;;;;;;5069271;28;20039;-47
2022/10/24 00:32:16;;;;;;;13.63;11.27;;;15.30;99.90;;;;;;5069159;28;20028;-46
2022/10/24 00:34:42;;;;;;;15.57;11.93;;;15.40;99.90;;;;;;5072106;28;20124;-48
2022/10/24 00:37:07;;;;;;;15.80;12.30;;;15.50;99.90;;;;;;5027563;28;20037;-47
2022/10/24 00:39:33;;;;;;;15.02;11.10;;;15.50;99.90;;;;;;5071019;28;20032;-46
2022/10/24 00:41:59;;;;;;;12.95;10.73;;;15.30;99.90;;;;;;5020668;28;20041;-46
2022/10/24 00:44:28;;;;;;;16.65;11.65;;;15.20;99.90;;;;;;5061306;28;20029;-46
2022/10/24 00:47:16;;;;;;;21.70;12.77;;;15.00;99.90;;;;;;5066848;28;20043;-48
2022/10/24 00:49:52;;;;;;;16.48;11.80;;;15.20;99.90;;;;;;5067539;28;20024;-46
2022/10/24 00:52:22;;;;;;;16.50;11.55;;;15.40;99.90;;;;;;5068704;28;20024;-46
2022/10/24 00:54:51;;;;;;;14.93;11.10;;;15.40;99.90;;;;;;5055189;28;20460;-46
2022/10/24 00:57:30;;;;;;;13.85;9.90;;;15.40;99.90;;;;;;5062614;28;20029;-46
2022/10/24 01:00:02;;;;;;;13.23;10.65;;;15.30;99.90;;;;;;5067088;28;20028;-46
2022/10/24 01:02:28;;;;;;;15.50;10.80;;;15.20;99.90;;;;;;5065640;28;20112;-46
2022/10/24 01:04:54;;;;;;;12.18;10.80;;;15.20;99.90;;;;;;5061338;28;20190;-47
2022/10/24 01:07:41;;;;;;;16.42;10.48;;;15.30;99.90;;;;;;5070815;28;20494;-46
2022/10/24 01:10:22;;;;;;;14.00;11.30;;;15.40;99.90;;;;;;5034330;28;20094;-48
2022/10/24 01:13:09;;;;;;;15.60;10.85;;;15.60;99.90;;;;;;5065374;28;20029;-47
2022/10/24 01:16:01;;;;;;;16.00;10.40;;;15.60;99.90;;;;;;5055954;28;20056;-46
2022/10/24 01:18:41;;;;;;;17.92;10.40;;;15.30;99.90;;;;;;5066247;28;20119;-46
2022/10/24 01:21:34;;;;;;;17.33;11.68;;;15.10;99.90;;;;;;5053514;28;20403;-46
2022/10/24 01:24:25;;;;;;;;;;;15.30;99.90;;;;;;5063786;28;20037;-46
2022/10/24 01:26:57;;;;;;;11.90;9.52;;;15.40;99.90;;;;;;5037704;28;19908;-47
2022/10/24 01:29:52;;;;;;;16.48;10.30;;;15.00;99.90;;;;;;5067170;28;20032;-48
2022/10/24 01:32:34;;;;;;;15.68;10.43;;;14.70;99.90;;;;;;5075198;28;20476;-46
2022/10/24 01:35:18;;;;;;;19.58;10.70;;;14.40;99.90;;;;;;5070183;28;20039;-46
2022/10/24 01:38:06;;;;;;;14.85;10.63;;;14.40;99.90;;;;;;5036447;28;20400;-46
2022/10/24 01:40:52;;;;;;;12.38;9.95;;;14.60;99.90;;;;;;5071508;28;20115;-47
2022/10/24 01:43:23;;;;;;;17.30;10.13;;;14.50;99.90;;;;;;5020726;28;20076;-46
2022/10/24 01:45:54;;;;;;;17.40;10.43;;;14.40;99.90;;;;;;5066584;28;20032;-46
2022/10/24 01:48:22;;;;;;;16.95;10.60;;;14.50;99.90;;;;;;5069873;28;20028;-47
2022/10/24 01:50:51;;;;;;;12.63;10.07;;;14.70;99.90;;;;;;5071779;28;20111;-46
2022/10/24 01:53:18;;;;;;;13.45;9.77;;;14.80;99.90;;;;;;5062749;28;20074;-47
2022/10/24 01:55:45;;;;;;;13.18;9.52;;;14.70;99.90;;;;;;5065668;28;20051;-46
2022/10/24 01:58:11;;;;;;;12.70;9.63;;;14.80;99.90;;;;;;5062712;28;20028;-47
2022/10/24 02:00:37;;;;;;;15.68;9.55;;;14.90;99.90;;;;;;5015092;28;20045;-47
2022/10/24 02:03:17;;;;;;;12.88;9.70;;;15.00;99.90;;;;;;5074394;28;20033;-48
2022/10/24 02:05:52;;;;;;;13.98;9.65;;;15.10;99.90;;;;;;5053362;28;20502;-47
2022/10/24 02:08:25;;;;;;;16.60;10.50;;;15.20;99.90;;;;;;5065788;28;20036;-47
2022/10/24 02:10:58;;;;;;;16.20;10.43;;;15.20;99.90;;;;;;5072910;28;20032;-47
2022/10/24 02:13:30;;;;;;;15.95;11.18;;;15.30;99.90;;;;;;5068945;28;20035;-46
2022/10/24 02:15:58;;;;;;;13.50;11.07;;;15.20;99.90;;;;;;5066621;28;20070;-47
2022/10/24 02:18:25;;;;;;;13.43;9.75;;;15.30;99.90;;;;;;5067335;28;20035;-47
2022/10/24 02:21:29;;;;;;;15.50;9.50;;;15.30;99.90;;;;;;5068744;28;20967;-46
2022/10/24 02:24:04;;;;;;;12.73;9.30;;;15.30;99.90;;;;;;4922705;28;20398;-47
2022/10/24 02:26:49;;;;;;;11.13;9.60;;;15.30;99.90;;;;;;4961893;28;20846;-46
2022/10/24 02:29:21;;;;;;;16.63;9.75;;;15.40;99.90;;;;;;4965531;28;20039;-47
2022/10/24 02:31:52;;;;;;;10.77;9.00;;;15.30;99.90;;;;;;4968656;28;20575;-47
2022/10/24 02:34:20;;;;;;;13.18;9.60;;;15.30;99.90;;;;;;4969784;28;20035;-46
2022/10/24 02:36:48;;;;;;;16.30;8.80;;;15.30;99.90;;;;;;4962137;28;20027;-47
2022/10/24 02:39:15;;;;;;;11.43;8.88;;;15.30;99.90;;;;;;4967579;28;20417;-46
2022/10/24 02:41:42;;;;;;;12.52;9.30;;;15.20;99.90;;;;;;4964759;28;20046;-47
2022/10/24 02:44:09;;;;;;;14.77;9.68;;;15.20;99.90;;;;;;4971586;28;20043;-47
2022/10/24 02:46:36;;;;;;;16.30;9.77;;;15.20;99.90;;;;;;4959452;28;20030;-46
2022/10/24 02:49:03;;;;;;;15.48;9.73;;;15.20;99.90;;;;;;4966289;28;20055;-46
2022/10/24 02:51:34;;;;;;;14.10;10.40;;;15.10;99.90;;;;;;4965043;28;20031;-46
2022/10/24 02:54:00;;;;;;;16.42;10.00;;;15.20;99.90;;;;;;4990229;28;20055;-46
2022/10/24 02:56:27;;;;;;;13.57;10.13;;;15.10;99.90;;;;;;5066952;28;20029;-47
2022/10/24 02:58:52;;;;;;;12.73;9.48;;;15.00;99.90;;;;;;5062207;28;20348;-47
2022/10/24 03:01:18;;;;;;;14.43;9.90;;;14.90;99.90;;;;;;5063881;28;20050;-47
2022/10/24 03:03:44;;;;;;;15.88;9.82;;;14.90;99.90;;;;;;5073225;28;20041;-47
2022/10/24 03:06:11;;;;;;;21.17;10.93;;;14.90;99.90;;;;;;5064944;28;20021;-46
2022/10/24 03:08:37;;;;;;;16.52;10.25;;;14.90;99.90;;;;;;5071597;28;20437;-47
2022/10/24 03:11:02;;;;;;;16.23;11.13;;;15.00;99.90;;;;;;5059033;28;20116;-46
2022/10/24 03:13:28;;;;;;;15.95;9.88;;;15.10;99.90;;;;;;5003867;28;20106;-46
2022/10/24 03:15:54;;;;;;;15.35;11.38;;;15.00;99.90;;;;;;5062881;28;20072;-46
2022/10/24 03:18:20;;;;;;;14.57;11.80;;;14.90;99.90;;;;;;5069769;28;20031;-47
2022/10/24 03:20:46;;;;;;;15.15;12.38;;;14.80;99.90;;;;;;5063966;28;20133;-46
2022/10/24 03:23:11;;;;;;;15.60;12.60;;;14.70;99.90;;;;;;5069284;28;20033;-46
2022/10/24 03:25:37;;;;;;;20.52;11.65;;;14.90;99.90;;;;;;5067846;28;20025;-46
2022/10/24 03:28:03;;;;;;;20.13;11.48;;;15.00;99.90;;;;;;5059002;28;20137;-47
2022/10/24 03:30:29;;;;;;;15.02;10.52;;;15.00;99.90;;;;;;5065503;28;20020;-47
2022/10/24 03:32:55;;;;;;;19.50;12.32;;;15.00;99.90;;;;;;5034940;28;20060;-47
2022/10/24 03:35:20;;;;;;;17.65;10.95;;;15.10;99.90;;;;;;5012916;28;20086;-47
2022/10/24 03:37:46;;;;;;;14.48;10.73;;;15.00;99.90;;;;;;5067749;28;20091;-48
2022/10/24 03:40:12;;;;;;;14.95;11.15;;;15.10;99.90;;;;;;5031238;28;20043;-47
2022/10/24 03:42:38;;;;;;;14.27;9.85;;;15.00;99.90;;;;;;5064829;28;20024;-47
2022/10/24 03:45:04;;;;;;;17.30;11.30;;;14.80;99.90;;;;;;5025413;28;20056;-46
2022/10/24 03:47:30;;;;;;;15.95;10.52;;;14.80;99.90;;;;;;5073585;28;20090;-47
2022/10/24 03:49:55;;;;;;;14.90;9.95;;;14.90;99.90;;;;;;5069292;28;20029;-47
2022/10/24 03:52:21;;;;;;;17.33;10.27;;;14.90;99.90;;;;;;5060746;28;20091;-47
2022/10/24 03:54:47;;;;;;;16.40;10.50;;;15.00;99.90;;;;;;5034522;28;20037;-47
2022/10/24 03:57:13;;;;;;;16.45;9.77;;;14.80;99.90;;;;;;5063372;28;20029;-47
2022/10/24 03:59:38;;;;;;;15.05;9.52;;;14.60;99.90;;;;;;5066141;28;20024;-47
2022/10/24 04:02:05;;;;;;;12.68;9.00;;;14.40;99.90;;;;;;5065176;28;20029;-47
2022/10/24 04:04:31;;;;;;;13.95;9.25;;;14.20;99.90;;;;;;5070651;28;20045;-48
2022/10/24 04:06:58;;;;;;;13.18;9.55;;;14.00;99.90;;;;;;5063765;28;20029;-47
2022/10/24 04:09:23;;;;;;;11.10;8.48;;;13.90;99.90;;;;;;5066158;28;20477;-47
2022/10/24 04:11:50;;;;;;;13.52;9.32;;;13.70;99.90;;;;;;5066492;28;20029;-47
2022/10/24 04:14:15;;;;;;;14.88;9.18;;;13.60;99.90;;;;;;5063252;28;20484;-48
2022/10/24 04:16:41;;;;;;;11.13;8.63;;;13.70;99.90;;;;;;5068881;28;20117;-47
2022/10/24 04:19:09;;;;;;;13.43;9.02;;;13.70;99.90;;;;;;5070684;28;20028;-47
2022/10/24 04:21:35;;;;;;;10.25;7.93;;;13.80;99.90;;;;;;5067553;28;20028;-47
2022/10/24 04:24:00;;;;;;;13.13;8.90;;;13.90;99.90;;;;;;4980499;28;20044;-47
2022/10/24 04:26:26;;;;;;;16.58;9.15;;;13.80;99.90;;;;;;5009760;28;20076;-47
2022/10/24 04:28:52;;;;;;;13.68;9.25;;;13.70;99.90;;;;;;5062497;28;20020;-47
2022/10/24 04:31:17;;;;;;;14.13;10.40;;;13.80;99.90;;;;;;5064604;28;20032;-48
2022/10/24 04:33:43;;;;;;;15.82;8.90;;;13.80;99.90;;;;;;5069483;28;20029;-47
2022/10/24 04:36:09;;;;;;;16.45;9.70;;;13.80;99.90;;;;;;5065376;28;20056;-47
2022/10/24 04:38:35;;;;;;;15.40;10.25;;;14.10;99.90;;;;;;5055533;28;20047;-48
2022/10/24 04:41:01;;;;;;;11.10;8.45;;;14.20;99.90;;;;;;4980540;28;20044;-48
2022/10/24 04:43:27;;;;;;;13.63;8.55;;;14.10;99.90;;;;;;5052586;28;20025;-47
2022/10/24 04:45:52;;;;;;;10.20;8.07;;;14.10;99.90;;;;;;5044277;28;20036;-47
2022/10/24 04:48:18;;;;;;;13.95;8.40;;;14.10;99.90;;;;;;5045565;28;20037;-47
2022/10/24 04:50:45;;;;;;;12.07;7.57;;;14.10;99.90;;;;;;5044157;28;20061;-48
2022/10/24 04:53:12;;;;;;;18.48;9.70;;;14.30;99.90;;;;;;5048024;28;20078;-47
2022/10/24 04:55:37;;;;;;;24.90;10.38;;;14.40;99.90;;;;;;5052337;28;20064;-48
2022/10/24 04:58:03;;;;;;;15.25;9.50;;;14.60;99.90;;;;;;5051771;28;20067;-46
2022/10/24 05:00:29;;;;;;;16.58;8.52;;;14.50;99.90;;;;;;5050781;28;20049;-47
2022/10/24 05:02:55;;;;;;;14.52;8.35;;;14.60;99.90;;;;;;5052990;28;20462;-47
2022/10/24 05:05:21;;;;;;;18.90;8.88;;;14.60;99.90;;;;;;5021726;28;20049;-47
2022/10/24 05:07:47;;;;;;;15.20;8.48;;;14.70;99.90;;;;;;5050315;28;20021;-48
2022/10/24 05:10:14;;;;;;;17.45;7.78;;;14.40;99.90;;;;;;5016029;28;20124;-47
2022/10/24 05:12:40;;;;;;;12.73;8.13;;;14.20;99.90;;;;;;5052891;28;20025;-47
2022/10/24 05:15:07;;;;;;;9.85;7.30;;;14.00;99.90;;;;;;5055953;28;20021;-47
2022/10/24 05:17:33;;;;;;;14.57;7.95;;;14.20;99.90;;;;;;4981109;28;20042;-46
2022/10/24 05:19:59;;;;;;;13.20;8.02;;;14.00;99.90;;;;;;5048771;28;20107;-47
2022/10/24 05:22:25;;;;;;;14.38;8.50;;;13.80;99.90;;;;;;5055374;28;20030;-48
2022/10/24 05:24:51;;;;;;;12.88;9.68;;;;;;;;;;5058485;28;20033;-48
2022/10/24 05:27:23;;;;;;;14.75;10.10;;;13.50;99.90;;;;;;5003980;28;20037;-47
2022/10/24 05:29:51;;;;;;;;;;;13.40;99.90;;;;;;5050323;28;20361;-49
2022/10/24 05:32:17;;;;;;;11.27;8.52;;;13.30;99.90;;;;;;5017202;28;20276;-50
2022/10/24 05:34:43;;;;;;;12.63;8.05;;;13.50;99.90;;;;;;5041000;28;20033;-48
2022/10/24 05:37:08;;;;;;;14.20;8.00;;;13.60;99.90;;;;;;5038859;28;20021;-47
2022/10/24 05:39:35;;;;;;;18.60;8.88;;;13.80;99.90;;;;;;5070563;28;20097;-48
2022/10/24 05:42:01;;;;;;;16.30;9.25;;;14.10;99.90;;;;;;5072381;28;20480;-50
2022/10/24 05:44:27;;;;;;;12.68;9.20;;;14.20;99.90;;;;;;5062922;28;20119;-46
2022/10/24 05:46:52;;;;;;;13.73;8.18;;;14.50;99.90;;;;;;5036925;28;20123;-50
2022/10/24 05:49:18;;;;;;;15.68;7.60;;;14.90;99.90;;;;;;5072351;28;20016;-47
2022/10/24 05:51:44;;;;;;;14.88;7.55;;;15.20;99.90;;;;;;5069680;28;20033;-55
2022/10/24 05:54:10;;;;;;;15.57;8.00;;;15.50;99.90;;;;;;5076412;28;20368;-48
2022/10/24 05:56:36;;;;;;;15.63;8.45;;;15.90;99.90;;;;;;5063090;28;20029;-50
2022/10/24 05:59:02;;;;;;;11.25;7.20;;;16.10;99.90;;;;;;5068945;28;20032;-51
2022/10/24 06:01:28;;;;;;;14.52;7.97;;;15.90;99.90;;;;;;5071027;28;20507;-56
2022/10/24 06:03:54;;;;;;;18.08;8.57;;;15.90;99.90;;;;;;5065205;28;20126;-49
2022/10/24 06:06:20;;;;;;;19.35;8.50;;;15.70;99.90;;;;;;5069054;28;20028;-51
2022/10/24 06:08:46;;;;;;;11.15;8.10;;;15.90;99.90;;;;;;5022301;28;20035;-51
2022/10/24 06:11:12;;;;;;;12.18;7.93;;;16.40;99.90;;;;;;5064617;28;20037;-51
2022/10/24 06:13:39;;;;;;;12.55;7.32;;;;;;;;;;5070062;28;20028;-49
2022/10/24 06:16:05;;;;;;;13.07;7.00;;;17.70;99.90;;;;;;5074441;28;20020;-48
2022/10/24 06:18:31;;;;;;;11.23;6.75;;;18.30;99.90;;;;;;5023588;28;20070;-48
2022/10/24 06:21:01;;;;;;;11.57;6.88;;;19.20;99.90;;;;;;5026224;28;20516;-47
2022/10/24 06:23:27;;;;;;;16.27;8.07;;;19.60;99.90;;;;;;5032151;28;20152;-47
2022/10/24 06:25:52;;;;;;;18.17;9.43;;;19.30;99.90;;;;;;5010243;28;20128;-47
2022/10/24 06:28:18;;;;;;;20.50;13.15;;;19.30;99.90;;;;;;5025192;28;20059;-46
2022/10/24 06:30:47;;;;;;;25.67;14.75;;;19.60;99.90;;;;;;5008410;28;20533;-47
2022/10/24 06:33:12;;;;;;;25.27;13.45;;;19.90;99.90;;;;;;4995224;28;20052;-47
2022/10/24 06:35:38;;;;;;;14.32;9.90;;;;;;;;;;5006611;28;20034;-47
2022/10/24 06:38:04;;;;;;;16.40;10.88;;;21.10;99.90;;;;;;5026275;28;20057;-48
2022/10/24 06:40:30;;;;;;;11.80;7.93;;;21.60;99.90;;;;;;5029667;28;20029;-47
2022/10/24 06:42:56;;;;;;;10.65;7.85;;;;;;;;;;4982533;28;20115;-46
2022/10/24 06:45:22;;;;;;;9.98;7.70;;;23.10;99.90;;;;;;5024239;28;20073;-46
2022/10/24 06:47:49;;;;;;;9.93;7.25;;;;;;;;;;5019907;28;20127;-47
2022/10/24 06:50:15;;;;;;;14.18;8.50;;;;;;;;;;5061559;28;20028;-46
2022/10/24 06:52:42;;;;;;;9.75;7.22;;;;;;;;;;5060990;28;20407;-46
2022/10/24 06:55:08;;;;;;;13.90;8.20;;;23.70;99.90;;;;;;5069303;28;20032;-48
2022/10/24 06:57:34;;;;;;;15.93;8.02;;;24.00;99.90;;;;;;5068627;28;20032;-47
2022/10/24 06:59:59;;;;;;;12.45;8.30;;;24.20;99.90;;;;;;5066102;28;20025;-47
2022/10/24 07:02:25;;;;;;;12.35;8.70;;;23.50;99.90;;;;;;5064389;28;20032;-47
2022/10/24 07:04:51;;;;;;;12.32;8.35;;;23.10;99.90;;;;;;5068544;28;20089;-47
2022/10/24 07:07:19;;;;;;;17.67;8.95;;;24.30;99.90;;;;;;5062886;28;20029;-47
2022/10/24 07:09:50;;;;;;;19.85;9.40;;;;;;;;;;5067858;28;20041;-47
2022/10/24 07:12:16;;;;;;;13.13;9.35;;;24.70;99.90;;;;;;5068254;28;20086;-47
2022/10/24 07:14:41;;;;;;;18.67;8.93;;;24.80;99.90;;;;;;5060017;28;20040;-47
2022/10/24 07:17:07;;;;;;;19.83;8.65;;;25.20;99.90;;;;;;5057259;28;20032;-47
2022/10/24 07:19:33;;;;;;;17.05;8.45;;;25.00;99.90;;;;;;5029335;28;20052;-47
2022/10/24 07:21:59;;;;;;;16.17;9.95;;;24.80;99.90;;;;;;5065579;28;20025;-47
2022/10/24 07:24:24;;;;;;;21.27;10.20;;;24.40;99.90;;;;;;5065607;28;20042;-48
2022/10/24 07:26:50;;;;;;;17.13;9.23;;;;;;;;;;5067395;28;20377;-47
2022/10/24 07:29:17;;;;;;;13.48;8.85;;;;;;;;;;4998378;28;20045;-48
2022/10/24 07:31:43;;;;;;;19.33;9.88;;;;;;;;;;5066939;28;20071;-47
2022/10/24 07:34:09;;;;;;;16.02;9.63;;;28.10;99.90;;;;;;5037417;28;20048;-48
2022/10/24 07:36:35;;;;;;;19.10;10.23;;;;;;;;;;5054389;28;20028;-47
2022/10/24 07:39:01;;;;;;;15.10;9.27;;;;;;;;;;5050755;28;20048;-49
2022/10/24 07:41:29;;;;;;;18.48;8.60;;;;;;;;;;5034722;28;20109;-49
2022/10/24 07:43:56;;;;;;;20.10;8.65;;;;;;;;;;5073326;28;20104;-48
2022/10/24 07:46:23;;;;;;;14.45;8.70;;;;;;;;;;5064226;28;20357;-50
2022/10/24 07:48:50;;;;;;;17.55;9.18;;;31.30;97.90;;;;;;5064052;28;20033;-51
2022/10/24 07:51:16;;;;;;;12.63;10.40;;;31.20;98.00;;;;;;5067464;28;20041;-51
2022/10/24 07:53:42;;;;;;;13.95;9.73;;;31.70;96.70;;;;;;5044464;28;20099;-54
2022/10/24 07:56:12;;;;;;;15.93;11.00;;;;;;;;;;5048632;28;20075;-53
2022/10/24 07:58:37;;;;;;;18.88;11.65;;;31.90;99.90;;;;;;5047357;28;20132;-56
2022/10/24 08:01:04;;;;;;;21.73;12.98;;;;;;;;;;4995594;28;20127;-51
2022/10/24 08:03:30;;;;;;;15.48;11.82;;;;;;;;;;5023087;28;20388;-51
2022/10/24 08:05:56;;;;;;;18.25;12.07;;;;;;;;;;5050068;28;20031;-51
2022/10/24 08:08:22;;;;;;;16.08;10.52;;;31.90;94.30;;;;;;5043346;28;20032;-49
2022/10/24 08:10:48;;;;;;;18.90;10.57;;;;;;;;;;5042311;28;20024;-49
2022/10/24 08:13:14;;;;;;;14.82;9.75;;;32.60;99.90;;;;;;5024591;28;20124;-50
2022/10/24 08:15:40;;;;;;;20.77;10.82;;;32.70;93.90;;;;;;5050363;28;20105;-50
2022/10/24 08:18:06;;;;;;;15.63;10.13;;;;;;;;;;4994704;28;20116;-49
2022/10/24 08:20:32;;;;;;;17.25;10.75;;;32.60;99.60;;;;;;5042534;28;20017;-52
2022/10/24 08:22:58;;;;;;;26.35;12.93;;;33.00;96.40;;;;;;5044639;28;20025;-51
2022/10/24 08:25:24;;;;;;;19.88;11.52;;;;;;;;;;5047320;28;20072;-50
2022/10/24 08:27:50;;;;;;;22.60;13.18;;;33.50;92.20;;;;;;5053770;28;20029;-49
2022/10/24 08:30:16;;;;;;;20.02;12.65;;;33.70;92.30;;;;;;5051379;28;20477;-50
2022/10/24 08:32:42;;;;;;;24.38;12.70;;;33.40;91.90;;;;;;5047728;28;20025;-55
2022/10/24 08:35:08;;;;;;;19.27;10.57;;;;;;;;;;5049776;28;20106;-49
2022/10/24 08:37:36;;;;;;;18.35;10.82;;;;;;;;;;5055268;28;20049;-51
2022/10/24 08:40:08;;;;;;;16.30;11.02;;;30.20;99.90;;;;;;5050354;28;20473;-48
2022/10/24 08:42:34;;;;;;;18.73;13.13;;;30.50;98.80;;;;;;5003052;28;20037;-49
2022/10/24 08:45:00;;;;;;;22.80;15.73;;;30.40;93.90;;;;;;5051706;28;20049;-49
2022/10/24 08:47:26;;;;;;;25.17;15.52;;;;;;;;;;5052432;28;20033;-50
2022/10/24 08:50:16;;;;;;;24.42;15.15;;;30.20;93.50;;;;;;5051454;28;20036;-51
2022/10/24 08:52:50;;;;;;;27.92;14.38;;;;;;;;;;5048510;28;20377;-55
2022/10/24 08:55:46;;;;;;;26.23;14.30;;;29.70;93.90;;;;;;5050717;28;20025;-52
2022/10/24 08:58:39;;;;;;;23.02;14.32;;;29.70;93.70;;;;;;4976672;28;20042;-52
2022/10/24 09:01:13;;;;;;;33.90;16.75;;;30.00;93.60;;;;;;4973277;28;20053;-55
2022/10/24 09:03:47;;;;;;;29.15;21.73;;;31.40;94.30;;;;;;4979658;28;20068;-51
2022/10/24 09:06:21;;;;;;;49.25;38.65;;;;;;;;;;4998246;28;20092;-49
2022/10/24 09:09:01;;;;;;;82.57;51.90;;;;;;;;;;4997702;28;20125;-53
2022/10/24 09:11:46;;;;;;;88.13;55.78;;;;;;;;;;5008518;28;20416;-52
2022/10/24 09:14:13;;;;;;;65.28;51.35;;;;;;;;;;5002621;28;20117;-51
2022/10/24 09:16:41;;;;;;;71.05;50.65;;;32.20;99.90;;;;;;4968259;28;20085;-57
2022/10/24 09:19:15;;;;;;;69.43;49.20;;;33.00;99.90;;;;;;5007338;28;20032;-50
2022/10/24 09:21:43;;;;;;;54.38;42.67;;;32.30;95.90;;;;;;4978082;28;20556;-52
2022/10/24 09:24:47;;;;;;;92.63;58.92;;;32.30;91.60;;;;;;4996896;28;20053;-51
2022/10/24 09:27:23;;;;;;;72.75;49.63;;;33.60;91.60;;;;;;4948989;29;20043;-51
2022/10/24 09:29:50;;;;;;;49.53;33.90;;;33.20;91.10;;;;;;4952582;29;20057;-50
2022/10/24 09:32:22;;;;;;;33.38;22.42;;;32.90;91.20;;;;;;4953259;29;20043;-54
2022/10/24 09:34:48;;;;;;;25.80;18.77;;;33.10;91.10;;;;;;4959867;28;20039;-57
2022/10/24 09:37:41;;;;;;;28.33;17.05;;;32.70;91.50;;;;;;4973007;28;20483;-52
2022/10/24 09:40:22;;;;;;;27.58;16.83;;;32.30;91.10;;;;;;4968851;28;20044;-53
2022/10/24 09:42:48;;;;;;;;;;;32.50;91.00;;;;;;4974272;28;20506;-55
2022/10/24 09:45:42;;;;;;;40.35;21.52;;;33.00;90.70;;;;;;4972701;28;19926;-56
2022/10/24 09:48:16;;;;;;;32.05;20.30;;;33.00;90.70;;;;;;4970298;28;20049;-62
2022/10/24 09:50:44;;;;;;;24.45;15.25;;;33.10;90.90;;;;;;4953818;28;20039;-60
2022/10/24 09:53:44;;;;;;;23.00;14.15;;;33.50;90.70;;;;;;4938459;28;20141;-60
2022/10/24 09:56:14;;;;;;;21.48;13.57;;;33.90;90.40;;;;;;4966417;28;20046;-55
2022/10/24 09:58:40;;;;;;;29.85;15.52;;;;;;;;;;4972817;28;20069;-51
2022/10/24 10:01:15;;;;;;;29.92;15.65;;;;;;;;;;4938885;28;20140;-53
2022/10/24 10:03:42;;;;;;;20.48;12.20;;;32.60;90.40;;;;;;5018823;28;20041;-62
2022/10/24 10:06:25;;;;;;;19.08;11.73;;;33.40;90.60;;;;;;5047504;28;20048;-56
2022/10/24 10:08:53;;;;;;;27.73;12.27;;;;;;;;;;5046853;28;20388;-57
2022/10/24 10:11:31;;;;;;;21.08;12.27;;;34.10;89.30;;;;;;5047657;28;20049;-53
2022/10/24 10:14:00;;;;;;;19.80;11.70;;;33.50;90.10;;;;;;5048757;28;20184;-58
2022/10/24 10:16:36;;;;;;;19.00;11.43;;;33.50;89.70;;;;;;5041985;28;20029;-52
2022/10/24 10:19:19;;;;;;;20.27;12.70;;;33.80;89.10;;;;;;5048111;28;20040;-57
2022/10/24 10:22:01;;;;;;;26.58;11.20;;;34.00;89.60;;;;;;5042375;28;20103;-52
2022/10/24 10:24:44;;;;;;;23.83;11.05;;;34.20;88.20;;;;;;5050416;28;20041;-56
2022/10/24 10:27:40;;;;;;;24.73;10.70;;;34.60;89.10;;;;;;5052632;28;20033;-55
2022/10/24 10:30:09;;;;;;;21.35;11.15;;;;;;;;;;5042208;28;20025;-58
2022/10/24 10:33:06;;;;;;;22.65;10.38;;;33.70;88.30;;;;;;5050745;28;20025;-55
2022/10/24 10:36:06;;;;;;;29.05;10.63;;;34.20;88.60;;;;;;5044249;28;20038;-54
2022/10/24 10:38:55;;;;;;;21.17;10.00;;;33.80;87.20;;;;;;5043777;28;20136;-56
2022/10/24 10:41:23;;;;;;;22.45;9.95;;;33.80;87.50;;;;;;5043870;28;20079;-55
2022/10/24 10:44:07;;;;;;;20.52;9.25;;;34.20;88.20;;;;;;5031863;28;20048;-53
2022/10/24 10:47:05;;;;;;;23.90;9.77;;;34.30;86.90;;;;;;5028222;28;20093;-57
2022/10/24 10:49:40;;;;;;;25.00;9.85;;;33.90;86.90;;;;;;5048883;28;20407;-55
2022/10/24 10:52:37;;;;;;;25.08;8.93;;;33.90;87.40;;;;;;5023498;28;20049;-56
2022/10/24 10:55:21;;;;;;;19.08;8.50;;;34.00;87.90;;;;;;5043540;28;20052;-51
2022/10/24 10:57:52;;;;;;;22.58;9.32;;;34.20;86.60;;;;;;5036541;28;20067;-48
2022/10/24 11:00:29;;;;;;;21.20;9.13;;;34.30;87.10;;;;;;5050513;28;20040;-52
2022/10/24 11:03:22;;;;;;;43.00;10.77;;;34.20;86.70;;;;;;5036403;28;20044;-51
2022/10/24 11:05:55;;;;;;;19.48;9.20;;;34.50;86.40;;;;;;5044442;28;20136;-55
2022/10/24 11:08:39;;;;;;;23.23;10.85;;;34.70;86.90;;;;;;5044993;28;20408;-52
2022/10/24 11:11:17;;;;;;;19.73;9.65;;;35.10;86.70;;;;;;5040730;28;20069;-53
2022/10/24 11:13:50;;;;;;;18.73;8.73;;;34.40;85.80;;;;;;5037945;28;20104;-49
2022/10/24 11:16:24;;;;;;;19.65;9.43;;;34.60;86.60;;;;;;5034522;28;20065;-51
2022/10/24 11:18:52;;;;;;;30.10;10.65;;;34.90;87.10;;;;;;5038838;28;20033;-55
2022/10/24 11:21:23;;;;;;;23.23;9.50;;;34.20;86.50;;;;;;5047266;28;20067;-56
2022/10/24 11:24:10;;;;;;;21.13;7.78;;;34.60;87.40;;;;;;5048587;28;20041;-55
2022/10/24 11:26:54;;;;;;;20.38;9.20;;;34.40;86.40;;;;;;5042905;28;20515;-56
2022/10/24 11:29:31;;;;;;;20.30;10.32;;;33.80;86.70;;;;;;5050405;28;20075;-52
2022/10/24 11:32:06;;;;;;;19.98;7.97;;;33.60;87.80;;;;;;5046148;28;20132;-52
2022/10/24 11:34:41;;;;;;;17.75;9.25;;;33.30;87.20;;;;;;5040254;28;20026;-52
2022/10/24 11:37:23;;;;;;;16.88;8.30;;;33.20;87.40;;;;;;5040346;28;20029;-50
2022/10/24 11:39:48;;;;;;;;;;;33.40;87.10;;;;;;5051540;28;20028;-49
2022/10/24 11:42:25;;;;;;;22.23;9.32;;;33.70;87.40;;;;;;5007678;28;19913;-47
2022/10/24 11:45:10;;;;;;;17.73;8.07;;;33.40;86.40;;;;;;5044449;28;20044;-49
2022/10/24 11:47:55;;;;;;;19.88;8.95;;;33.60;91.80;;;;;;5044859;28;20033;-51
2022/10/24 11:50:39;;;;;;;22.48;8.48;;;33.70;90.70;;;;;;5012964;28;20096;-50
2022/10/24 11:53:33;;;;;;;18.92;8.98;;;33.50;93.00;;;;;;5008520;28;20044;-47
2022/10/24 11:56:16;;;;;;;20.67;8.35;;;33.40;88.40;;;;;;5049437;28;20358;-48
2022/10/24 11:59:02;;;;;;;24.27;8.40;;;;;;;;;;5046670;28;20052;-54
2022/10/24 12:01:33;;;;;;;20.50;8.15;;;32.50;99.90;;;;;;5039971;28;20472;-47
2022/10/24 12:04:36;;;;;;;15.63;7.70;;;32.70;88.20;;;;;;5042853;28;20502;-46
2022/10/24 12:07:04;;;;;;;20.08;8.30;;;33.20;90.00;;;;;;5012552;28;20124;-48
2022/10/24 12:09:36;;;;;;;18.58;7.93;;;32.80;88.90;;;;;;5029743;28;20067;-46
2022/10/24 12:12:09;;;;;;;17.45;8.70;;;;;;;;;;5023831;28;20033;-48
2022/10/24 12:14:58;;;;;;;22.65;10.18;;;32.50;88.40;;;;;;5047814;28;20124;-50
2022/10/24 12:17:47;;;;;;;24.77;10.63;;;31.70;87.80;;;;;;5044596;28;20025;-50
2022/10/24 12:20:18;;;;;;;26.98;12.25;;;32.20;86.30;;;;;;5041018;28;20477;-51
2022/10/24 12:22:44;;;;;;;35.40;20.67;;;32.60;87.80;;;;;;5046239;28;20025;-44
2022/10/24 12:25:16;;;;;;;29.60;17.00;;;32.30;89.20;;;;;;5003739;28;20045;-44
2022/10/24 12:27:42;;;;;;;40.42;21.48;;;;;;;;;;5014140;28;20037;-51
2022/10/24 12:30:08;;;;;;;45.60;27.15;;;;;;;;;;5049953;28;20074;-47
2022/10/24 12:32:40;;;;;;;52.85;31.55;;;31.00;99.90;;;;;;5050157;28;20129;-52
2022/10/24 12:35:06;;;;;;;;;;;;;;;;;;5042010;28;20036;-50
2022/10/24 12:37:33;;;;;;;58.92;33.35;;;30.80;99.90;;;;;;5043983;28;19924;-49
2022/10/24 12:40:19;;;;;;;44.28;26.63;;;31.90;99.90;;;;;;5048535;28;20431;-47
2022/10/24 12:42:44;;;;;;;32.42;19.38;;;31.80;99.90;;;;;;4981678;28;20046;-48
2022/10/24 12:45:27;;;;;;;33.65;16.27;;;;;;;;;;4952078;28;21015;-49
2022/10/24 12:47:52;;;;;;;28.95;15.80;;;30.50;99.90;;;;;;4971791;28;20145;-47
2022/10/24 12:50:21;;;;;;;30.67;13.70;;;30.80;89.50;;;;;;4972732;28;20227;-49
2022/10/24 12:52:46;;;;;;;28.80;10.77;;;30.60;90.10;;;;;;4983056;28;20046;-47
2022/10/24 12:55:36;;;;;;;26.30;9.77;;;30.80;90.10;;;;;;4982111;28;20041;-48
2022/10/24 12:58:23;;;;;;;21.92;8.98;;;;;;;;;;4981365;28;20047;-48
2022/10/24 13:01:00;;;;;;;25.17;9.48;;;;;;;;;;4983371;28;20111;-47
2022/10/24 13:03:38;;;;;;;26.15;8.60;;;;;;;;;;4985017;28;20101;-47
2022/10/24 13:45:20;;;;;;;21.73;8.45;;;;;;;;;;5038590;28;20556;-48
2022/10/24 13:47:50;;;;;;;21.25;8.95;;;29.20;86.20;;;;;;5046794;28;20104;-48